Time;durP1;ratioP1;P1;durP2;ratioP2;P2;SDS_P1;SDS_P2;PMS_P1;PMS_P2;Temp;Humidity;BMP_temperature;BMP_pressure;BME280_temperature;BME280_humidity;BME280_pressure;Samples;Min_cycle;Max_cycle;Signal;HPM_P1;HPM_P2
2022/12/30 00:01:44;;;;;;;15.45;2.15;;;;;;;;;;4998166;28;20369;-88
2022/12/30 00:04:10;;;;;;;10.90;1.88;;;;;;;;;;5002607;28;20030;-88
2022/12/30 00:06:35;;;;;;;15.73;2.42;;;;;;;;;;5003384;28;20491;-89
2022/12/30 00:09:00;;;;;;;9.23;1.80;;;;;;;;;;5015565;28;20029;-88
2022/12/30 00:11:27;;;;;;;17.35;2.08;;;;;;;;;;5019523;28;20568;-89
2022/12/30 00:34:02;;;;;;;19.85;2.40;;;;;;;;;;4887844;29;20100;-89
2022/12/30 00:36:28;;;;;;;13.60;2.13;;;;;;;;;;4888915;29;20044;-88
2022/12/30 00:38:54;;;;;;;12.60;2.17;;;;;;;;;;4871496;29;20053;-89
2022/12/30 00:44:03;;;;;;;13.68;2.08;;;;;;;;;;4890054;29;20055;-89
2022/12/30 00:46:28;;;;;;;9.73;1.77;;;;;;;;;;4872035;29;20045;-88
2022/12/30 00:57:05;;;;;;;14.57;1.98;;;;;;;;;;4924662;29;19934;-88
2022/12/30 00:59:30;;;;;;;11.05;1.85;;;;;;;;;;4902159;29;20496;-89
2022/12/30 01:01:56;;;;;;;12.60;1.85;;;;;;;;;;4938055;28;20389;-88
2022/12/30 01:04:21;;;;;;;12.40;2.25;;;;;;;;;;5004468;28;20982;-89
2022/12/30 01:06:46;;;;;;;8.82;2.00;;;;;;;;;;5006568;28;20450;-89
2022/12/30 01:09:12;;;;;;;13.15;2.35;;;;;;;;;;5022671;28;20837;-89
2022/12/30 01:11:37;;;;;;;13.50;2.50;;;;;;;;;;5004089;28;20024;-89
2022/12/30 01:14:02;;;;;;;17.65;3.05;;;;;;;;;;5024578;28;20049;-89
2022/12/30 01:16:28;;;;;;;15.10;2.75;;;;;;;;;;5024558;28;20026;-89
2022/12/30 01:18:54;;;;;;;14.23;2.70;;;;;;;;;;5005638;28;20018;-89
2022/12/30 01:21:19;;;;;;;13.18;2.97;;;;;;;;;;5021229;28;20025;-89
2022/12/30 01:23:44;;;;;;;14.48;2.60;;;;;;;;;;5006914;28;20091;-88
2022/12/30 01:26:10;;;;;;;17.08;2.88;;;;;;;;;;4994889;28;20030;-88
2022/12/30 01:28:36;;;;;;;15.13;2.90;;;;;;;;;;5026811;28;20048;-89
2022/12/30 01:31:03;;;;;;;16.35;3.28;;;;;;;;;;5019884;28;20053;-89
2022/12/30 01:33:29;;;;;;;19.05;3.60;;;;;;;;;;5007597;28;20081;-89
2022/12/30 01:35:54;;;;;;;12.18;4.40;;;;;;;;;;5007957;28;20496;-88
2022/12/30 01:38:19;;;;;;;16.30;3.50;;;;;;;;;;5003122;28;20099;-88
2022/12/30 01:40:45;;;;;;;19.58;4.60;;;;;;;;;;5008218;28;20028;-89
2022/12/30 01:43:11;;;;;;;17.58;4.25;;;;;;;;;;5009357;28;20044;-89
2022/12/30 01:45:37;;;;;;;15.93;3.92;;;;;;;;;;5025930;28;20024;-89
2022/12/30 01:48:05;;;;;;;12.55;4.30;;;;;;;;;;5024857;28;20037;-88
2022/12/30 01:50:33;;;;;;;14.18;3.92;;;;;;;;;;5007403;28;20455;-88
2022/12/30 01:53:03;;;;;;;17.70;3.72;;;;;;;;;;5023613;28;20025;-88
2022/12/30 01:55:35;;;;;;;17.98;3.83;;;;;;;;;;5001441;28;20170;-88
2022/12/30 01:58:01;;;;;;;12.23;3.25;;;;;;;;;;5022825;28;20029;-88
2022/12/30 02:00:27;;;;;;;15.18;3.88;;;;;;;;;;5019821;28;20095;-88
2022/12/30 02:02:53;;;;;;;15.35;3.38;;;;;;;;;;5000866;28;20021;-88
2022/12/30 02:05:21;;;;;;;15.00;3.10;;;;;;;;;;5005091;28;20034;-88
2022/12/30 02:07:49;;;;;;;14.20;3.13;;;;;;;;;;4998262;28;20027;-88
2022/12/30 02:10:15;;;;;;;13.07;2.85;;;;;;;;;;4993493;28;20036;-87
2022/12/30 02:12:40;;;;;;;13.90;2.95;;;;;;;;;;5004848;28;20455;-88
2022/12/30 02:15:06;;;;;;;11.90;2.35;;;;;;;;;;5020606;28;20028;-88
2022/12/30 02:17:34;;;;;;;16.63;3.03;;;;;;;;;;5023984;28;20018;-88
2022/12/30 02:20:15;;;;;;;16.40;2.78;;;;;;;;;;5002837;28;20026;-88
2022/12/30 02:22:59;;;;;;;14.05;2.50;;;;;;;;;;5001879;28;20034;-88
2022/12/30 02:25:42;;;;;;;12.20;2.38;;;;;;;;;;5022041;28;20064;-87
2022/12/30 02:28:17;;;;;;;15.07;2.20;;;;;;;;;;5001934;28;20108;-88
2022/12/30 02:31:05;;;;;;;12.55;2.40;;;;;;;;;;5020812;28;20046;-88
2022/12/30 02:33:38;;;;;;;10.55;2.17;;;;;;;;;;5002056;28;20072;-88
2022/12/30 02:36:11;;;;;;;11.45;1.75;;;;;;;;;;5000961;28;20025;-88
2022/12/30 02:38:39;;;;;;;10.60;2.05;;;;;;;;;;5021056;28;20028;-88
2022/12/30 02:46:52;;;;;;;8.10;1.67;;;;;;;;;;5020287;28;20040;-87
2022/12/30 02:49:18;;;;;;;10.52;1.80;;;;;;;;;;5003052;28;20083;-87
2022/12/30 02:54:27;;;;;;;10.63;2.10;;;;;;;;;;5020222;28;20041;-87
2022/12/30 02:56:53;;;;;;;12.13;2.17;;;;;;;;;;4998898;28;20393;-87
2022/12/30 03:05:03;;;;;;;10.82;1.58;;;;;;;;;;5008021;28;20033;-93
2022/12/30 03:07:31;;;;;;;14.63;2.30;;;;;;;;;;5017857;28;20029;-92
2022/12/30 03:12:47;;;;;;;10.85;2.10;;;;;;;;;;5020193;28;20479;-90
2022/12/30 03:15:16;;;;;;;16.20;2.25;;;;;;;;;;4995476;28;20057;-91
2022/12/30 03:17:43;;;;;;;10.82;1.75;;;;;;;;;;4999638;28;20021;-91
2022/12/30 03:20:12;;;;;;;10.35;1.65;;;;;;;;;;5002024;28;20045;-90
2022/12/30 03:28:10;;;;;;;9.82;1.80;;;;;;;;;;5019115;28;20107;-90
2022/12/30 03:30:39;;;;;;;11.70;1.70;;;;;;;;;;5021631;28;20018;-91
2022/12/30 03:33:05;;;;;;;11.05;1.65;;;;;;;;;;5004526;28;20591;-91
2022/12/30 03:35:33;;;;;;;10.70;2.03;;;;;;;;;;4999130;28;20140;-90
2022/12/30 03:37:59;;;;;;;14.05;1.77;;;;;;;;;;5019460;28;20708;-91
2022/12/30 03:40:36;;;;;;;12.90;1.92;;;;;;;;;;5003014;28;20105;-91
2022/12/30 03:43:02;;;;;;;15.77;2.30;;;;;;;;;;5004275;28;20040;-91
2022/12/30 03:45:27;;;;;;;13.85;1.92;;;;;;;;;;5005036;28;20022;-93
2022/12/30 03:47:52;;;;;;;13.48;1.95;;;;;;;;;;5023299;28;20071;-92
2022/12/30 03:50:17;;;;;;;11.02;2.20;;;;;;;;;;5000290;28;20838;-92
2022/12/30 03:52:43;;;;;;;19.02;2.42;;;;;;;;;;5001156;28;20091;-93
2022/12/30 03:55:08;;;;;;;12.30;1.63;;;;;;;;;;5002079;28;20065;-92
2022/12/30 03:57:34;;;;;;;10.85;1.92;;;;;;;;;;5017786;28;20030;-91
2022/12/30 03:59:59;;;;;;;13.00;1.83;;;;;;;;;;4996787;28;20053;-92
2022/12/30 04:02:25;;;;;;;15.13;2.00;;;;;;;;;;4995477;28;20045;-90
2022/12/30 04:04:51;;;;;;;13.73;1.70;;;;;;;;;;5017724;28;20061;-92
2022/12/30 04:07:16;;;;;;;10.38;2.10;;;;;;;;;;5019033;28;20060;-91
2022/12/30 04:09:41;;;;;;;16.75;2.33;;;;;;;;;;5003986;28;20033;-91
2022/12/30 04:12:07;;;;;;;11.23;1.90;;;;;;;;;;5003361;28;20026;-91
2022/12/30 04:14:32;;;;;;;11.27;2.10;;;;;;;;;;5022165;28;20030;-91
2022/12/30 04:16:57;;;;;;;8.55;1.73;;;;;;;;;;5019526;28;20324;-92
2022/12/30 04:19:22;;;;;;;16.17;2.42;;;;;;;;;;5002888;28;20029;-90
2022/12/30 04:21:48;;;;;;;12.83;2.10;;;;;;;;;;5019258;28;20022;-91
2022/12/30 04:24:13;;;;;;;15.35;2.13;;;;;;;;;;5017414;28;20287;-92
2022/12/30 04:26:38;;;;;;;17.27;2.42;;;;;;;;;;5022173;28;20021;-94
2022/12/30 04:29:04;;;;;;;15.30;2.30;;;;;;;;;;5007960;28;20501;-93
2022/12/30 04:31:29;;;;;;;12.73;2.40;;;;;;;;;;5018785;28;20021;-92
2022/12/30 04:33:54;;;;;;;13.15;2.55;;;;;;;;;;5018836;28;20052;-91
2022/12/30 04:36:20;;;;;;;12.02;2.10;;;;;;;;;;5003017;28;20045;-91
2022/12/30 04:38:46;;;;;;;16.83;2.10;;;;;;;;;;5002406;28;20083;-92
2022/12/30 04:41:11;;;;;;;19.10;2.72;;;;;;;;;;5004222;28;20053;-91
2022/12/30 04:43:37;;;;;;;14.35;2.40;;;;;;;;;;5001089;28;20026;-91
2022/12/30 04:46:02;;;;;;;12.27;2.03;;;;;;;;;;5000909;28;20025;-91
2022/12/30 04:48:28;;;;;;;14.57;1.85;;;;;;;;;;5002626;28;20036;-91
2022/12/30 04:50:53;;;;;;;14.50;2.28;;;;;;;;;;5001818;28;20692;-91
2022/12/30 04:53:18;;;;;;;18.83;2.13;;;;;;;;;;5003181;28;20041;-91
2022/12/30 04:55:43;;;;;;;12.68;2.10;;;;;;;;;;5020372;28;20025;-91
2022/12/30 04:58:09;;;;;;;11.63;1.65;;;;;;;;;;5002831;28;20067;-90
2022/12/30 05:00:34;;;;;;;16.85;2.83;;;;;;;;;;5020079;28;20865;-91
2022/12/30 05:02:59;;;;;;;15.60;2.17;;;;;;;;;;5014905;28;20068;-91
2022/12/30 05:05:25;;;;;;;12.95;1.83;;;;;;;;;;5021285;28;20029;-90
2022/12/30 05:07:53;;;;;;;12.40;1.83;;;;;;;;;;5019649;28;21094;-91
2022/12/30 05:10:19;;;;;;;15.18;2.90;;;;;;;;;;5000361;28;20431;-92
2022/12/30 05:12:44;;;;;;;15.30;2.22;;;;;;;;;;5018211;28;20021;-91
2022/12/30 05:15:09;;;;;;;13.85;1.70;;;;;;;;;;5003695;28;20025;-91
2022/12/30 05:17:35;;;;;;;16.45;1.90;;;;;;;;;;5020815;28;20520;-92
2022/12/30 05:20:00;;;;;;;13.98;2.03;;;;;;;;;;5002915;28;20071;-92
2022/12/30 05:22:25;;;;;;;16.10;2.40;;;;;;;;;;5002432;28;20120;-92
2022/12/30 05:27:34;;;;;;;16.08;2.22;;;;;;;;;;5023413;28;20084;-92
2022/12/30 05:30:00;;;;;;;15.85;2.00;;;;;;;;;;5007601;28;20053;-92
2022/12/30 05:32:26;;;;;;;12.40;2.10;;;;;;;;;;5005023;28;20028;-92
2022/12/30 05:34:51;;;;;;;14.38;1.73;;;;;;;;;;5008518;28;20032;-92
2022/12/30 05:37:16;;;;;;;11.40;2.15;;;;;;;;;;5006810;28;20021;-92
2022/12/30 05:39:41;;;;;;;9.80;2.00;;;;;;;;;;5005174;28;20448;-92
2022/12/30 05:42:07;;;;;;;13.03;2.10;;;;;;;;;;5003877;28;20266;-91
2022/12/30 05:44:32;;;;;;;19.92;2.42;;;;;;;;;;5025557;28;20270;-92
2022/12/30 05:46:57;;;;;;;13.43;2.03;;;;;;;;;;5007093;28;20037;-92
2022/12/30 05:49:22;;;;;;;14.55;2.42;;;;;;;;;;5004824;28;20363;-93
2022/12/30 05:51:48;;;;;;;12.20;1.80;;;;;;;;;;5007590;28;20172;-93
2022/12/30 05:54:13;;;;;;;11.65;2.13;;;;;;;;;;4999632;28;20022;-92
2022/12/30 05:56:38;;;;;;;13.18;2.00;;;;;;;;;;5020545;28;20014;-92
2022/12/30 05:59:04;;;;;;;15.82;1.90;;;;;;;;;;5000740;28;20543;-92
2022/12/30 06:01:29;;;;;;;18.65;2.13;;;;;;;;;;5016304;28;20046;-90
2022/12/30 06:03:55;;;;;;;12.63;2.03;;;;;;;;;;4998826;28;20045;-92
2022/12/30 06:06:21;;;;;;;13.32;1.70;;;;;;;;;;4996853;28;20309;-91
2022/12/30 06:08:46;;;;;;;10.27;1.73;;;;;;;;;;4998910;28;20227;-92
2022/12/30 06:11:11;;;;;;;17.58;1.80;;;;;;;;;;5021236;28;20037;-93
2022/12/30 06:13:36;;;;;;;21.70;2.10;;;;;;;;;;5001086;28;20740;-91
2022/12/30 06:16:02;;;;;;;13.35;1.92;;;;;;;;;;4998168;28;20018;-92
2022/12/30 06:18:27;;;;;;;11.35;1.65;;;;;;;;;;5019650;28;20017;-90
2022/12/30 06:20:53;;;;;;;13.75;2.10;;;;;;;;;;5002311;28;20480;-91
2022/12/30 06:23:19;;;;;;;19.80;2.10;;;;;;;;;;5004963;28;20079;-92
2022/12/30 06:25:44;;;;;;;12.10;2.20;;;;;;;;;;5002421;28;20041;-91
2022/12/30 06:28:09;;;;;;;10.30;1.75;;;;;;;;;;5023683;28;20040;-93
2022/12/30 06:30:34;;;;;;;14.20;2.07;;;;;;;;;;5019058;28;20120;-92
2022/12/30 06:32:59;;;;;;;10.43;1.77;;;;;;;;;;5001634;28;20370;-92
2022/12/30 06:35:25;;;;;;;13.20;3.23;;;;;;;;;;5000304;28;20021;-91
2022/12/30 06:37:50;;;;;;;12.38;1.80;;;;;;;;;;5021359;28;20375;-92
2022/12/30 06:40:16;;;;;;;12.55;1.98;;;;;;;;;;5024533;28;20033;-91
2022/12/30 06:42:41;;;;;;;11.07;2.10;;;;;;;;;;5020909;28;20032;-91
2022/12/30 06:45:08;;;;;;;11.32;2.15;;;;;;;;;;5000877;28;20029;-91
2022/12/30 06:47:35;;;;;;;18.45;2.13;;;;;;;;;;4998044;28;20037;-92
2022/12/30 06:50:00;;;;;;;12.15;1.67;;;;;;;;;;5000524;28;20025;-91
2022/12/30 06:52:25;;;;;;;13.80;1.90;;;;;;;;;;4998354;28;20440;-92
2022/12/30 06:54:51;;;;;;;10.20;1.90;;;;;;;;;;5000893;28;20025;-92
2022/12/30 06:57:16;;;;;;;11.47;1.90;;;;;;;;;;5017536;28;20095;-92
2022/12/30 06:59:41;;;;;;;11.32;1.73;;;;;;;;;;4999517;28;20865;-92
2022/12/30 07:02:08;;;;;;;9.73;2.10;;;;;;;;;;5000688;28;20029;-92
2022/12/30 07:04:33;;;;;;;12.60;1.90;;;;;;;;;;5019237;28;20030;-91
2022/12/30 07:06:58;;;;;;;14.77;2.13;;;;;;;;;;4996914;28;20397;-91
2022/12/30 07:09:24;;;;;;;12.67;1.77;;;;;;;;;;4999047;28;20340;-92
2022/12/30 07:11:49;;;;;;;12.63;1.80;;;;;;;;;;4997078;28;20263;-91
2022/12/30 07:14:14;;;;;;;9.70;1.50;;;;;;;;;;4995034;28;20269;-91
2022/12/30 07:16:39;;;;;;;12.95;1.83;;;;;;;;;;4998664;28;20516;-91
2022/12/30 07:19:05;;;;;;;10.75;2.60;;;;;;;;;;4994194;28;20497;-91
2022/12/30 07:21:30;;;;;;;10.73;1.60;;;;;;;;;;4995876;28;20155;-93
2022/12/30 07:23:56;;;;;;;11.80;2.00;;;;;;;;;;4997348;28;20633;-92
2022/12/30 07:26:21;;;;;;;10.60;1.70;;;;;;;;;;4999038;28;20029;-92
2022/12/30 07:28:46;;;;;;;12.45;1.63;;;;;;;;;;5018810;28;20548;-91
2022/12/30 07:31:11;;;;;;;11.57;1.92;;;;;;;;;;5004903;28;20041;-92
2022/12/30 07:33:37;;;;;;;12.82;1.85;;;;;;;;;;5004886;28;20026;-92
2022/12/30 07:36:02;;;;;;;13.80;2.00;;;;;;;;;;5001916;28;20768;-91
2022/12/30 07:38:27;;;;;;;12.38;1.60;;;;;;;;;;4999425;28;20029;-92
2022/12/30 07:40:53;;;;;;;12.13;1.90;;;;;;;;;;5018856;28;20032;-91
2022/12/30 07:43:18;;;;;;;17.05;2.30;;;;;;;;;;4999450;28;20124;-94
2022/12/30 07:45:44;;;;;;;12.63;2.17;;;;;;;;;;5013920;28;20032;-94
2022/12/30 07:48:09;;;;;;;15.15;1.85;;;;;;;;;;5012527;28;20503;-94
2022/12/30 07:50:34;;;;;;;20.80;2.30;;;;;;;;;;5010209;28;20037;-94
2022/12/30 07:52:59;;;;;;;12.77;1.65;;;;;;;;;;5010048;28;20025;-94
2022/12/30 07:55:25;;;;;;;12.52;1.77;;;;;;;;;;5007448;28;20100;-93
2022/12/30 07:57:50;;;;;;;15.55;1.80;;;;;;;;;;5010062;28;20024;-92
2022/12/30 08:00:16;;;;;;;15.32;1.95;;;;;;;;;;5025082;28;20112;-93
2022/12/30 08:02:41;;;;;;;15.73;2.17;;;;;;;;;;5026539;28;20049;-91
2022/12/30 08:05:07;;;;;;;12.25;1.75;;;;;;;;;;5006511;28;20040;-91
2022/12/30 08:07:34;;;;;;;14.98;2.35;;;;;;;;;;5006169;28;20049;-93
2022/12/30 08:09:59;;;;;;;11.23;1.75;;;;;;;;;;5009016;28;20103;-93
2022/12/30 08:12:25;;;;;;;16.17;2.50;;;;;;;;;;5020650;28;20093;-93
2022/12/30 08:14:50;;;;;;;16.83;2.10;;;;;;;;;;5006001;28;20029;-91
2022/12/30 08:17:16;;;;;;;13.70;1.88;;;;;;;;;;5002297;28;20022;-90
2022/12/30 08:19:41;;;;;;;12.70;1.77;;;;;;;;;;5004568;28;20136;-92
2022/12/30 08:22:06;;;;;;;12.65;2.08;;;;;;;;;;5004321;28;20152;-92
2022/12/30 08:24:32;;;;;;;14.90;2.30;;;;;;;;;;5022975;28;20556;-87
2022/12/30 08:26:57;;;;;;;10.52;1.42;;;;;;;;;;5020189;28;20029;-90
2022/12/30 08:29:23;;;;;;;12.27;1.85;;;;;;;;;;5017761;28;20130;-94
2022/12/30 08:31:49;;;;;;;12.05;1.70;;;;;;;;;;5001717;28;20044;-91
2022/12/30 08:34:19;;;;;;;12.18;1.95;;;;;;;;;;5003601;28;20029;-92
2022/12/30 08:36:44;;;;;;;15.63;2.33;;;;;;;;;;5022823;28;20032;-91
2022/12/30 08:39:10;;;;;;;15.35;2.00;;;;;;;;;;5004947;28;20021;-92
2022/12/30 08:41:38;;;;;;;12.40;2.17;;;;;;;;;;5002891;28;20029;-92
2022/12/30 08:44:03;;;;;;;12.90;2.03;;;;;;;;;;5006159;28;20111;-92
2022/12/30 08:46:30;;;;;;;12.93;2.03;;;;;;;;;;5018829;28;20022;-91
2022/12/30 08:48:55;;;;;;;9.50;1.67;;;;;;;;;;5002304;28;20033;-91
2022/12/30 08:51:21;;;;;;;20.13;2.35;;;;;;;;;;4996410;28;20037;-91
2022/12/30 08:53:46;;;;;;;15.80;1.92;;;;;;;;;;4998046;28;20061;-93
2022/12/30 08:56:11;;;;;;;16.20;2.35;;;;;;;;;;5018206;28;20075;-93
2022/12/30 08:58:36;;;;;;;11.47;1.50;;;;;;;;;;5001382;28;20025;-91
2022/12/30 09:01:09;;;;;;;12.37;2.00;;;;;;;;;;4996730;28;20271;-91
2022/12/30 09:03:35;;;;;;;15.37;2.00;;;;;;;;;;4998186;28;20298;-92
2022/12/30 09:06:00;;;;;;;10.98;1.48;;;;;;;;;;4999947;28;20393;-91
2022/12/30 09:08:26;;;;;;;15.13;1.67;;;;;;;;;;5018977;28;20014;-91
2022/12/30 09:11:05;;;;;;;12.38;1.88;;;;;;;;;;5013577;28;20164;-92
2022/12/30 09:13:31;;;;;;;10.63;1.77;;;;;;;;;;5005418;28;20053;-92
2022/12/30 09:16:00;;;;;;;13.20;2.88;;;;;;;;;;5004463;28;20021;-92
2022/12/30 09:18:25;;;;;;;8.27;1.55;;;;;;;;;;4999963;28;20025;-93
2022/12/30 09:20:50;;;;;;;13.13;2.05;;;;;;;;;;5004820;28;20506;-90
2022/12/30 09:23:16;;;;;;;10.35;1.60;;;;;;;;;;5018409;28;20468;-92
2022/12/30 09:25:41;;;;;;;12.15;1.48;;;;;;;;;;5002079;28;20021;-93
2022/12/30 09:28:06;;;;;;;11.17;1.57;;;;;;;;;;4996630;28;20099;-91
2022/12/30 09:30:32;;;;;;;10.38;1.40;;;;;;;;;;5018730;28;20275;-91
2022/12/30 09:32:57;;;;;;;7.00;1.10;;;;;;;;;;5006152;28;20036;-92
2022/12/30 09:35:22;;;;;;;8.93;1.20;;;;;;;;;;4998244;28;20501;-91
2022/12/30 09:37:53;;;;;;;6.70;1.30;;;;;;;;;;5002530;28;20084;-92
2022/12/30 09:40:26;;;;;;;6.72;1.38;;;;;;;;;;5018858;28;20112;-92
2022/12/30 09:45:42;;;;;;;9.10;1.15;;;;;;;;;;5018894;28;20997;-90
2022/12/30 09:48:11;;;;;;;6.82;1.08;;;;;;;;;;4996833;28;20460;-93
2022/12/30 09:50:40;;;;;;;8.32;1.20;;;;;;;;;;5000975;28;20080;-92
2022/12/30 09:53:05;;;;;;;10.77;1.35;;;;;;;;;;4997197;28;20041;-91
2022/12/30 09:55:47;;;;;;;10.10;1.30;;;;;;;;;;5001200;28;20018;-91
2022/12/30 09:58:17;;;;;;;8.77;1.02;;;;;;;;;;5018406;28;20274;-91
2022/12/30 10:00:42;;;;;;;8.55;1.35;;;;;;;;;;4995333;28;20108;-92
2022/12/30 10:03:17;;;;;;;9.30;1.60;;;;;;;;;;4995240;28;20107;-91
2022/12/30 10:05:58;;;;;;;7.95;1.48;;;;;;;;;;5012065;28;20061;-91
2022/12/30 10:08:42;;;;;;;7.55;1.25;;;;;;;;;;4999899;28;20128;-92
2022/12/30 10:11:29;;;;;;;9.00;1.33;;;;;;;;;;4999494;28;20029;-91
2022/12/30 10:14:04;;;;;;;54.92;3.67;;;;;;;;;;5011027;28;20088;-92
2022/12/30 10:16:30;;;;;;;6.18;1.02;;;;;;;;;;5016156;28;20699;-91
2022/12/30 10:19:08;;;;;;;6.72;1.38;;;;;;;;;;5014595;28;20032;-91
2022/12/30 10:21:42;;;;;;;8.32;1.08;;;;;;;;;;5003173;28;20030;-92
2022/12/30 10:24:17;;;;;;;8.63;1.75;;;;;;;;;;5001270;28;20026;-90
2022/12/30 10:26:44;;;;;;;7.82;0.93;;;;;;;;;;5017464;28;20033;-91
2022/12/30 10:29:16;;;;;;;5.40;0.93;;;;;;;;;;5020123;28;20159;-91
2022/12/30 10:31:43;;;;;;;5.72;1.10;;;;;;;;;;5002002;28;20079;-91
2022/12/30 10:34:11;;;;;;;7.57;1.10;;;;;;;;;;5012119;28;20018;-94
2022/12/30 10:36:59;;;;;;;7.80;1.13;;;;;;;;;;5000998;28;20075;-91
2022/12/30 10:39:37;;;;;;;6.07;1.00;;;;;;;;;;4998129;28;20026;-91
2022/12/30 10:42:28;;;;;;;3.17;0.65;;;;;;;;;;5001636;28;20017;-90
2022/12/30 10:45:26;;;;;;;2.90;0.65;;;;;;;;;;5002160;28;20024;-90
2022/12/30 10:48:27;;;;;;;4.20;0.68;;;;;;;;;;4993450;28;20045;-92
2022/12/30 10:53:57;;;;;;;7.97;0.90;;;;;;;;;;5002899;28;20033;-92
2022/12/30 10:56:35;;;;;;;4.20;0.70;;;;;;;;;;4988845;28;20033;-92
2022/12/30 10:59:37;;;;;;;4.45;0.98;;;;;;;;;;4993835;28;20057;-91
2022/12/30 11:02:30;;;;;;;5.43;1.00;;;;;;;;;;4995840;28;20108;-93
2022/12/30 11:04:56;;;;;;;7.28;1.23;;;;;;;;;;4995540;28;20203;-93
2022/12/30 11:07:22;;;;;;;4.05;0.80;;;;;;;;;;5000658;28;20540;-91
2022/12/30 11:09:50;;;;;;;5.35;1.10;;;;;;;;;;5000401;28;20028;-96
2022/12/30 11:15:26;;;;;;;5.30;1.10;;;;;;;;;;5011366;28;21403;-92
2022/12/30 11:17:53;;;;;;;3.60;1.00;;;;;;;;;;4997237;28;20029;-90
2022/12/30 11:20:26;;;;;;;5.15;1.00;;;;;;;;;;5013027;28;20057;-90
2022/12/30 11:22:52;;;;;;;;;;;;;;;;;;4997272;28;20029;-92
2022/12/30 11:25:25;;;;;;;6.67;1.10;;;;;;;;;;4997495;28;19947;-93
2022/12/30 11:27:58;;;;;;;4.00;0.90;;;;;;;;;;5000546;28;20573;-93
2022/12/30 11:30:41;;;;;;;;;;;;;;;;;;;;;
2022/12/30 11:33:36;;;;;;;6.32;1.00;;;;;;;;;;5012112;28;20038;-92
2022/12/30 11:36:30;;;;;;;6.50;1.15;;;;;;;;;;4997527;28;20036;-91
2022/12/30 11:38:55;;;;;;;;;;;;;;;;;;4998513;28;20172;-94
2022/12/30 11:41:25;;;;;;;4.00;0.88;;;;;;;;;;4995483;28;20345;-93
2022/12/30 11:43:56;;;;;;;5.50;1.10;;;;;;;;;;5008722;28;20072;-92
2022/12/30 11:46:23;;;;;;;4.68;1.08;;;;;;;;;;5004997;28;21258;-92
2022/12/30 11:48:51;;;;;;;5.47;1.42;;;;;;;;;;5009561;28;20041;-87
2022/12/30 11:51:25;;;;;;;3.85;1.05;;;;;;;;;;5011364;28;20033;-91
2022/12/30 11:54:22;;;;;;;6.13;1.50;;;;;;;;;;5012600;28;20132;-91
2022/12/30 11:56:51;;;;;;;5.05;1.20;;;;;;;;;;4991342;28;20041;-91
2022/12/30 11:59:19;;;;;;;4.03;1.23;;;;;;;;;;4998731;28;20045;-91
2022/12/30 12:01:47;;;;;;;8.27;1.35;;;;;;;;;;5009968;28;20029;-92
2022/12/30 12:04:45;;;;;;;8.15;1.35;;;;;;;;;;4999569;28;20046;-92
2022/12/30 12:07:16;;;;;;;5.35;1.30;;;;;;;;;;4957190;28;20049;-90
2022/12/30 12:09:45;;;;;;;18.42;1.90;;;;;;;;;;5019131;28;20140;-92
2022/12/30 12:12:12;;;;;;;6.13;1.30;;;;;;;;;;4998727;28;20030;-91
2022/12/30 12:14:56;;;;;;;4.18;1.10;;;;;;;;;;5002927;28;20076;-91
2022/12/30 12:17:37;;;;;;;4.07;1.00;;;;;;;;;;5015473;28;20696;-92
2022/12/30 12:20:06;;;;;;;3.53;0.98;;;;;;;;;;4997484;28;20401;-91
2022/12/30 12:23:00;;;;;;;4.78;1.15;;;;;;;;;;5016189;28;20256;-91
2022/12/30 12:25:29;;;;;;;5.28;1.10;;;;;;;;;;4997030;28;20068;-91
2022/12/30 12:27:55;;;;;;;3.75;1.00;;;;;;;;;;4997560;28;20030;-92
2022/12/30 12:30:23;;;;;;;5.13;1.20;;;;;;;;;;5015710;28;20072;-93
2022/12/30 12:32:49;;;;;;;3.90;1.10;;;;;;;;;;5019413;28;20058;-91
2022/12/30 12:35:22;;;;;;;4.63;1.00;;;;;;;;;;5004298;28;20057;-90
2022/12/30 12:37:48;;;;;;;4.47;1.23;;;;;;;;;;5022444;28;20029;-92
2022/12/30 12:40:25;;;;;;;7.87;1.33;;;;;;;;;;5002865;28;20029;-91
2022/12/30 12:42:57;;;;;;;3.38;1.05;;;;;;;;;;5000958;28;20286;-91
2022/12/30 12:45:41;;;;;;;4.20;1.20;;;;;;;;;;5017406;28;20045;-91
2022/12/30 12:48:06;;;;;;;;;;;;;;;;;;4999327;28;20052;-92
2022/12/30 12:50:40;;;;;;;6.32;1.25;;;;;;;;;;4996482;28;20021;-90
2022/12/30 12:53:34;;;;;;;5.30;1.17;;;;;;;;;;4999842;28;20472;-92
2022/12/30 12:56:08;;;;;;;3.83;1.13;;;;;;;;;;5015051;28;20030;-92
2022/12/30 12:58:45;;;;;;;3.30;0.95;;;;;;;;;;4994494;28;20030;-91
2022/12/30 13:01:23;;;;;;;4.05;1.20;;;;;;;;;;4997063;28;20034;-91
2022/12/30 13:03:48;;;;;;;4.88;1.17;;;;;;;;;;4996416;28;20061;-91
2022/12/30 13:06:29;;;;;;;4.38;1.20;;;;;;;;;;4993574;28;20033;-92
2022/12/30 13:08:54;;;;;;;5.50;1.20;;;;;;;;;;4997537;28;20501;-92
2022/12/30 13:11:23;;;;;;;4.43;0.98;;;;;;;;;;4997280;28;20029;-91
2022/12/30 13:14:02;;;;;;;4.20;1.10;;;;;;;;;;5001581;28;20025;-91
2022/12/30 13:16:30;;;;;;;4.20;1.30;;;;;;;;;;4998957;28;20057;-91
2022/12/30 13:18:55;;;;;;;4.22;1.10;;;;;;;;;;5014107;28;20046;-92
2022/12/30 13:21:27;;;;;;;4.43;1.13;;;;;;;;;;4997318;28;20038;-91
2022/12/30 13:23:55;;;;;;;3.60;0.90;;;;;;;;;;4993666;28;20054;-92
2022/12/30 13:26:24;;;;;;;4.18;1.02;;;;;;;;;;5021153;28;20018;-91
2022/12/30 13:28:55;;;;;;;3.65;0.85;;;;;;;;;;5003660;28;20021;-91
2022/12/30 13:31:26;;;;;;;3.45;0.95;;;;;;;;;;5011041;28;20155;-90
2022/12/30 13:34:02;;;;;;;4.45;1.08;;;;;;;;;;5003134;28;20035;-92
2022/12/30 13:36:33;;;;;;;2.75;0.82;;;;;;;;;;5014429;28;20026;-91
2022/12/30 13:38:58;;;;;;;2.60;0.80;;;;;;;;;;4993718;28;20049;-91
2022/12/30 13:41:42;;;;;;;3.97;0.90;;;;;;;;;;4997943;28;20112;-91
2022/12/30 13:44:12;;;;;;;3.55;1.05;;;;;;;;;;5001528;28;20136;-91
2022/12/30 13:46:46;;;;;;;3.35;1.00;;;;;;;;;;4994301;28;20152;-92
2022/12/30 13:49:13;;;;;;;3.63;0.93;;;;;;;;;;5016390;28;20484;-91
2022/12/30 13:51:39;;;;;;;3.28;1.00;;;;;;;;;;5012790;28;20103;-92
2022/12/30 13:54:09;;;;;;;3.88;1.00;;;;;;;;;;4997079;28;20029;-96
2022/12/30 13:56:49;;;;;;;4.15;1.00;;;;;;;;;;4991910;28;21713;-92
2022/12/30 13:59:27;;;;;;;2.85;0.77;;;;;;;;;;4997360;28;20037;-94
2022/12/30 14:02:11;;;;;;;3.60;1.00;;;;;;;;;;4995026;28;20107;-92
2022/12/30 14:04:44;;;;;;;3.22;0.90;;;;;;;;;;4998896;28;20056;-92
2022/12/30 14:07:29;;;;;;;3.63;1.00;;;;;;;;;;5000751;28;20034;-91
2022/12/30 14:10:13;;;;;;;2.88;0.80;;;;;;;;;;5018708;28;20606;-91
2022/12/30 14:12:39;;;;;;;2.47;0.70;;;;;;;;;;4998706;28;20540;-91
2022/12/30 14:15:24;;;;;;;2.35;0.80;;;;;;;;;;5015602;28;20132;-93
2022/12/30 14:17:51;;;;;;;4.97;0.90;;;;;;;;;;4995427;28;20507;-91
2022/12/30 14:20:27;;;;;;;3.08;0.80;;;;;;;;;;5020849;28;20108;-92
2022/12/30 14:22:57;;;;;;;4.22;1.00;;;;;;;;;;5003531;28;20025;-92
2022/12/30 14:25:25;;;;;;;4.20;0.90;;;;;;;;;;4998609;28;20033;-91
2022/12/30 14:28:19;;;;;;;4.28;0.88;;;;;;;;;;5016994;28;20164;-92
2022/12/30 14:30:51;;;;;;;3.28;0.80;;;;;;;;;;4980563;28;20044;-92
2022/12/30 14:33:19;;;;;;;3.65;0.60;;;;;;;;;;5003795;28;20022;-91
2022/12/30 14:36:03;;;;;;;4.40;0.90;;;;;;;;;;5001990;28;20029;-92
2022/12/30 14:38:31;;;;;;;3.17;0.70;;;;;;;;;;5015377;28;20032;-91
2022/12/30 14:41:01;;;;;;;5.25;0.80;;;;;;;;;;5001967;28;20027;-91
2022/12/30 14:43:27;;;;;;;3.33;0.70;;;;;;;;;;5004072;28;20028;-92
2022/12/30 14:46:11;;;;;;;4.07;0.77;;;;;;;;;;5019944;28;20022;-91
2022/12/30 14:48:55;;;;;;;4.40;0.80;;;;;;;;;;4997126;28;20762;-92
2022/12/30 14:51:21;;;;;;;2.53;0.57;;;;;;;;;;5013036;28;20072;-90
2022/12/30 14:53:46;;;;;;;4.20;0.75;;;;;;;;;;4993672;28;20025;-92
2022/12/30 14:56:16;;;;;;;2.25;0.47;;;;;;;;;;5016461;28;20041;-91
2022/12/30 14:58:41;;;;;;;4.45;0.57;;;;;;;;;;5009959;28;20120;-91
2022/12/30 15:01:10;;;;;;;5.40;0.60;;;;;;;;;;4994875;28;20039;-92
2022/12/30 15:03:38;;;;;;;2.30;0.47;;;;;;;;;;4996955;28;20408;-91
2022/12/30 15:06:03;;;;;;;3.85;0.65;;;;;;;;;;5017919;28;20057;-91
2022/12/30 15:08:31;;;;;;;5.45;0.90;;;;;;;;;;4998662;28;20144;-90
2022/12/30 15:10:58;;;;;;;5.53;0.63;;;;;;;;;;5009377;28;20025;-91
2022/12/30 15:13:27;;;;;;;2.60;0.40;;;;;;;;;;4993810;28;20485;-91
2022/12/30 15:16:02;;;;;;;3.05;0.50;;;;;;;;;;5016839;28;20032;-91
2022/12/30 15:18:32;;;;;;;6.22;0.80;;;;;;;;;;4999074;28;20017;-91
2022/12/30 15:20:58;;;;;;;4.78;0.70;;;;;;;;;;4997634;28;20064;-91
2022/12/30 15:23:23;;;;;;;4.55;0.93;;;;;;;;;;5013080;28;20132;-91
2022/12/30 15:25:56;;;;;;;6.55;1.00;;;;;;;;;;5016440;28;20103;-91
2022/12/30 15:28:22;;;;;;;;;;;;;;;;;;5016575;28;20096;-91
2022/12/30 15:30:56;;;;;;;4.45;0.60;;;;;;;;;;4998359;28;19931;-91
2022/12/30 15:33:22;;;;;;;5.25;0.85;;;;;;;;;;4994605;28;20712;-91
2022/12/30 15:35:47;;;;;;;3.73;0.80;;;;;;;;;;5015237;28;20021;-91
2022/12/30 15:38:16;;;;;;;6.57;0.95;;;;;;;;;;5015627;28;20293;-90
2022/12/30 15:40:44;;;;;;;8.10;1.00;;;;;;;;;;5012917;28;20061;-90
2022/12/30 15:43:14;;;;;;;8.90;0.80;;;;;;;;;;5012648;28;20033;-91
2022/12/30 15:45:57;;;;;;;6.82;1.13;;;;;;;;;;5001574;28;20159;-90
2022/12/30 15:48:23;;;;;;;;;;;;;;;;;;5018303;28;20033;-91
2022/12/30 15:50:52;;;;;;;8.70;1.00;;;;;;;;;;4999132;28;19960;-91
2022/12/30 15:53:20;;;;;;;11.15;1.20;;;;;;;;;;5000891;28;20030;-92
2022/12/30 15:55:46;;;;;;;6.78;1.40;;;;;;;;;;5016497;28;20025;-91